Time;durP1;ratioP1;P1;durP2;ratioP2;P2;SDS_P1;SDS_P2;PMS_P1;PMS_P2;Temp;Humidity;BMP_temperature;BMP_pressure;BME280_temperature;BME280_humidity;BME280_pressure;Samples;Min_cycle;Max_cycle;Signal;HPM_P1;HPM_P2
2023/09/13 00:01:17;;;;;;;33.20;25.00;;;;;;;18.53;83.41;100371.06;105262;1270;99485;-83
2023/09/13 00:04:02;;;;;;;31.50;24.10;;;;;;;18.52;83.56;100369.80;105192;1269;104017;-83
2023/09/13 00:06:48;;;;;;;33.30;24.80;;;;;;;18.48;83.52;100364.37;105229;1273;99884;-83
2023/09/13 00:09:34;;;;;;;27.80;23.70;;;;;;;18.43;83.60;100362.91;105306;1271;99301;-82
2023/09/13 00:12:19;;;;;;;27.90;24.20;;;;;;;18.39;83.76;100358.48;105262;1270;99896;-84
2023/09/13 00:15:06;;;;;;;26.50;22.70;;;;;;;18.38;83.57;100359.66;105155;1273;99304;-82
2023/09/13 00:17:51;;;;;;;27.20;23.20;;;;;;;18.35;83.81;100353.63;105166;1270;102866;-82
2023/09/13 00:20:38;;;;;;;30.00;24.30;;;;;;;18.31;84.00;100350.13;105074;1273;99440;-83
2023/09/13 00:23:23;;;;;;;28.50;22.70;;;;;;;18.28;84.10;100348.19;105159;1273;99010;-83
2023/09/13 00:26:09;;;;;;;31.70;24.00;;;;;;;18.28;83.96;100343.61;105003;1276;99392;-83
2023/09/13 00:28:54;;;;;;;27.50;23.40;;;;;;;18.26;83.93;100338.23;105274;1274;100123;-83
2023/09/13 00:31:41;;;;;;;28.30;25.20;;;;;;;18.24;84.14;100338.35;105097;1272;103566;-83
2023/09/13 00:34:26;;;;;;;31.90;26.20;;;;;;;18.21;84.47;100342.63;105292;1270;100399;-84
2023/09/13 00:37:11;;;;;;;30.90;25.20;;;;;;;18.18;84.87;100343.05;105033;1273;99437;-83
2023/09/13 00:39:57;;;;;;;32.80;24.70;;;;;;;18.13;85.09;100344.86;105226;1271;99412;-82
2023/09/13 00:42:42;;;;;;;32.90;26.90;;;;;;;18.09;85.09;100345.36;105260;1271;99434;-82
2023/09/13 00:45:32;;;;;;;27.10;24.00;;;;;;;18.05;84.74;100341.40;104927;1273;115396;-83
2023/09/13 00:48:18;;;;;;;27.10;24.20;;;;;;;18.02;85.09;100339.22;105263;1267;100487;-83
2023/09/13 00:51:04;;;;;;;32.90;25.90;;;;;;;18.00;85.13;100341.48;105126;1274;99301;-83
2023/09/13 00:53:50;;;;;;;28.70;25.40;;;;;;;17.99;84.88;100347.73;104983;1274;99287;-83
2023/09/13 00:56:36;;;;;;;31.60;25.80;;;;;;;17.93;85.29;100342.71;105197;1270;99275;-82
2023/09/13 00:59:24;;;;;;;29.10;25.90;;;;;;;17.91;85.79;100340.89;104971;1273;104137;-82
2023/09/13 01:02:09;;;;;;;35.80;24.10;;;;;;;17.89;85.54;100343.34;105277;1273;99248;-84
2023/09/13 01:04:54;;;;;;;31.90;24.40;;;;;;;17.86;85.53;100346.04;105148;1273;99327;-84
2023/09/13 01:07:42;;;;;;;30.70;24.70;;;;;;;17.82;85.37;100344.23;105253;1270;99422;-82
2023/09/13 01:10:27;;;;;;;32.80;25.10;;;;;;;17.81;85.52;100346.05;105038;1276;101051;-83
2023/09/13 01:13:14;;;;;;;35.10;25.60;;;;;;;17.81;85.57;100347.42;105169;1272;103357;-83
2023/09/13 01:16:27;;;;;;;30.20;25.20;;;;;;;17.79;85.58;100347.77;105173;1270;99284;-82
2023/09/13 01:19:41;;;;;;;30.40;24.80;;;;;;;17.75;85.71;100347.12;105170;1267;99437;-82
2023/09/13 01:22:51;;;;;;;30.70;23.90;;;;;;;17.70;85.82;100347.68;105230;1270;99260;-83
2023/09/13 01:26:13;;;;;;;30.20;24.60;;;;;;;17.64;85.71;100348.14;105251;1273;100005;-83
2023/09/13 01:29:00;;;;;;;30.30;24.80;;;;;;;17.57;86.00;100348.27;105301;1270;102852;-81
2023/09/13 01:31:47;;;;;;;32.40;25.90;;;;;;;17.53;86.38;100345.19;105242;1270;99709;-82
2023/09/13 01:34:32;;;;;;;31.10;24.80;;;;;;;17.51;86.52;100343.36;105145;1273;99452;-84
2023/09/13 01:37:18;;;;;;;30.90;25.50;;;;;;;17.50;86.10;100347.55;105031;1270;99421;-82
2023/09/13 01:40:08;;;;;;;30.80;26.20;;;;;;;17.46;86.23;100351.56;104949;1273;99876;-83
2023/09/13 01:42:59;;;;;;;30.20;25.20;;;;;;;17.42;86.57;100352.52;105064;1274;104066;-83
2023/09/13 01:45:46;;;;;;;36.80;24.70;;;;;;;17.37;86.43;100349.52;105228;1270;100767;-83
2023/09/13 01:48:32;;;;;;;34.90;24.20;;;;;;;17.31;86.33;100349.38;106161;1270;99454;-84
2023/09/13 01:51:17;;;;;;;27.00;22.90;;;;;;;17.25;86.44;100349.24;105101;1273;99250;-83
2023/09/13 01:54:03;;;;;;;27.60;24.40;;;;;;;17.22;86.30;100346.95;105018;1270;99813;-83
2023/09/13 01:56:49;;;;;;;26.00;23.10;;;;;;;17.18;85.99;100344.75;104950;1270;102815;-82
2023/09/13 01:59:35;;;;;;;27.70;23.00;;;;;;;17.14;85.79;100342.16;105098;1270;99313;-84
2023/09/13 02:02:20;;;;;;;30.40;23.00;;;;;;;17.08;85.99;100338.30;105185;1270;99869;-83
2023/09/13 02:05:06;;;;;;;28.30;23.20;;;;;;;17.05;85.85;100339.62;105236;1271;99403;-83
2023/09/13 02:07:51;;;;;;;26.10;22.30;;;;;;;17.00;85.90;100339.52;105113;1269;99807;-83
2023/09/13 02:10:37;;;;;;;27.00;21.60;;;;;;;16.97;86.30;100338.95;105130;1270;102779;-83
2023/09/13 02:13:22;;;;;;;25.50;22.50;;;;;;;16.97;86.57;100336.91;105137;1270;99329;-84
2023/09/13 02:16:07;;;;;;;26.40;23.50;;;;;;;16.96;86.45;100335.59;104942;1270;100161;-83
2023/09/13 02:18:53;;;;;;;28.90;22.50;;;;;;;16.96;86.48;100331.41;105232;1270;99374;-83
2023/09/13 02:21:40;;;;;;;26.00;23.10;;;;;;;16.96;86.48;100332.77;105198;1270;99347;-84
2023/09/13 02:24:26;;;;;;;32.00;24.20;;;;;;;16.96;86.74;100335.56;105169;1273;104052;-84
2023/09/13 02:27:12;;;;;;;27.00;23.30;;;;;;;16.93;87.04;100336.77;105156;1269;99355;-83
2023/09/13 02:29:58;;;;;;;30.70;23.60;;;;;;;16.91;87.31;100337.42;105190;1273;99379;-82
2023/09/13 02:32:43;;;;;;;27.40;22.80;;;;;;;16.91;87.19;100335.89;105128;1270;99440;-83
2023/09/13 02:35:30;;;;;;;30.90;24.10;;;;;;;16.90;87.36;100335.83;105234;1273;99326;-82
2023/09/13 02:38:16;;;;;;;31.00;24.30;;;;;;;16.88;87.22;100339.65;105253;1270;103676;-83
2023/09/13 02:41:03;;;;;;;26.20;23.00;;;;;;;16.87;87.35;100339.84;105493;1270;99279;-83
2023/09/13 02:43:48;;;;;;;27.20;23.50;;;;;;;16.86;87.19;100340.47;105262;1270;99456;-83
2023/09/13 02:46:34;;;;;;;29.80;22.90;;;;;;;16.82;87.31;100338.65;105226;1273;99410;-84
2023/09/13 02:49:20;;;;;;;25.50;21.90;;;;;;;16.79;87.03;100336.09;105366;1273;99067;-83
2023/09/13 02:52:06;;;;;;;26.60;23.50;;;;;;;16.76;87.22;100338.06;105184;1269;102774;-83
2023/09/13 02:54:52;;;;;;;24.40;21.40;;;;;;;16.73;87.09;100338.70;105140;1273;100500;-83
2023/09/13 02:57:37;;;;;;;29.10;22.10;;;;;;;16.69;86.93;100338.39;105234;1273;99327;-83
2023/09/13 03:00:22;;;;;;;26.40;23.00;;;;;;;16.66;87.21;100333.27;105289;1270;99262;-83
2023/09/13 03:03:08;;;;;;;29.60;23.50;;;;;;;16.65;87.13;100332.75;105085;1273;100367;-83
2023/09/13 03:05:54;;;;;;;25.80;22.50;;;;;;;16.62;86.91;100334.25;105227;1269;102803;-83
2023/09/13 03:08:39;;;;;;;27.90;23.50;;;;;;;16.59;87.16;100339.20;105286;1273;99358;-83
2023/09/13 03:11:25;;;;;;;31.40;24.40;;;;;;;16.56;87.34;100341.25;104996;1274;99492;-82
2023/09/13 03:14:11;;;;;;;26.00;22.10;;;;;;;16.55;87.15;100341.20;105076;1269;99358;-85
2023/09/13 03:16:56;;;;;;;34.20;23.20;;;;;;;16.54;87.23;100338.04;104999;1273;99783;-83
2023/09/13 03:19:42;;;;;;;30.90;23.90;;;;;;;16.53;87.15;100338.55;105119;1270;103366;-82
2023/09/13 03:22:27;;;;;;;30.20;24.30;;;;;;;16.51;87.35;100343.11;105004;1268;100556;-83
2023/09/13 03:25:13;;;;;;;38.20;25.90;;;;;;;16.49;87.50;100341.91;105351;1270;99297;-83
2023/09/13 03:27:59;;;;;;;32.20;24.90;;;;;;;16.49;87.51;100342.95;105200;1273;99354;-83
2023/09/13 03:30:45;;;;;;;28.00;23.60;;;;;;;16.46;87.32;100342.71;105079;1268;99377;-83
2023/09/13 03:33:30;;;;;;;33.20;25.70;;;;;;;16.42;87.24;100342.73;105330;1270;103552;-83
2023/09/13 03:36:16;;;;;;;30.40;24.90;;;;;;;16.37;87.36;100338.71;105105;1270;100121;-84
2023/09/13 03:39:04;;;;;;;30.30;24.40;;;;;;;16.35;87.22;100339.67;105303;1269;99283;-83
2023/09/13 03:41:50;;;;;;;31.10;24.60;;;;;;;16.32;87.30;100341.10;105144;1270;99564;-84
2023/09/13 03:44:36;;;;;;;34.30;27.90;;;;;;;16.28;87.78;100339.23;105248;1269;99348;-83
2023/09/13 03:47:22;;;;;;;33.30;26.60;;;;;;;16.29;87.79;100336.11;105365;1270;102794;-83
2023/09/13 03:50:07;;;;;;;35.90;26.60;;;;;;;16.28;87.83;100331.05;105211;1270;109567;-83
2023/09/13 03:52:53;;;;;;;33.20;26.40;;;;;;;16.26;87.87;100330.63;105183;1270;99444;-83
2023/09/13 03:55:39;;;;;;;34.70;27.90;;;;;;;16.23;87.58;100330.49;105143;1270;99348;-83
2023/09/13 03:58:25;;;;;;;31.60;25.30;;;;;;;16.19;87.94;100326.06;105167;1268;99431;-83
2023/09/13 04:01:10;;;;;;;31.10;24.90;;;;;;;16.15;87.81;100325.58;105372;1273;103524;-83
2023/09/13 04:03:56;;;;;;;31.60;24.60;;;;;;;16.12;87.49;100320.30;105189;1270;99447;-82
2023/09/13 04:06:41;;;;;;;26.70;22.20;;;;;;;16.10;87.84;100317.17;105068;1270;99390;-83
2023/09/13 04:09:27;;;;;;;27.90;22.40;;;;;;;16.04;87.73;100315.55;105175;1271;99306;-83
2023/09/13 04:12:12;;;;;;;26.80;21.90;;;;;;;16.00;87.98;100314.69;105019;1273;99389;-83
2023/09/13 04:14:58;;;;;;;27.40;21.40;;;;;;;15.98;87.94;100314.89;105146;1268;102837;-83
2023/09/13 04:17:43;;;;;;;28.00;20.80;;;;;;;15.94;87.75;100310.58;105173;1270;100479;-83
2023/09/13 04:20:29;;;;;;;27.20;21.00;;;;;;;15.92;88.18;100313.23;105179;1270;99348;-83
2023/09/13 04:23:14;;;;;;;24.50;20.90;;;;;;;15.90;88.27;100309.71;105439;1273;99446;-82
2023/09/13 04:26:00;;;;;;;22.70;20.30;;;;;;;15.90;87.98;100313.45;105180;1270;99786;-82
2023/09/13 04:28:46;;;;;;;26.60;21.40;;;;;;;15.91;88.00;100314.93;105157;1273;112296;-83
2023/09/13 04:31:31;;;;;;;25.00;21.70;;;;;;;15.91;88.06;100317.73;105202;1273;99408;-82
2023/09/13 04:34:16;;;;;;;26.20;21.30;;;;;;;15.91;88.10;100317.67;105339;1270;99394;-83
2023/09/13 04:37:05;;;;;;;29.20;22.10;;;;;;;15.91;88.10;100319.14;105211;1270;99831;-83
2023/09/13 04:39:51;;;;;;;30.90;23.80;;;;;;;15.91;88.20;100315.77;105065;1271;100974;-83
2023/09/13 04:42:42;;;;;;;34.40;25.00;;;;;;;15.91;88.34;100308.98;105244;1273;104056;-82
2023/09/13 04:45:28;;;;;;;36.30;24.40;;;;;;;15.93;88.57;100303.20;106586;1272;99861;-82
2023/09/13 04:48:13;;;;;;;31.50;24.40;;;;;;;15.93;88.67;100305.48;105065;1270;99357;-82
2023/09/13 04:50:59;;;;;;;31.90;24.30;;;;;;;15.92;88.71;100309.81;105033;1270;97650;-83
2023/09/13 04:53:44;;;;;;;31.40;24.30;;;;;;;15.93;89.08;100312.39;105084;1269;99342;-84
2023/09/13 04:56:30;;;;;;;34.20;25.40;;;;;;;15.95;89.16;100314.76;105016;1270;104181;-83
2023/09/13 04:59:16;;;;;;;31.00;24.40;;;;;;;15.98;89.58;100313.02;105112;1270;100457;-82
2023/09/13 05:02:03;;;;;;;33.10;23.60;;;;;;;16.01;89.35;100310.51;104889;1270;100639;-82
2023/09/13 05:04:48;;;;;;;32.30;24.00;;;;;;;16.06;89.54;100314.85;105171;1273;99247;-82
2023/09/13 05:07:33;;;;;;;36.20;24.40;;;;;;;16.11;89.97;100317.32;105181;1270;99338;-83
2023/09/13 05:10:19;;;;;;;32.80;24.60;;;;;;;16.16;90.38;100318.54;105075;1273;104099;-82
2023/09/13 05:13:04;;;;;;;31.10;26.00;;;;;;;16.21;90.47;100319.63;105246;1267;99922;-83
2023/09/13 05:15:50;;;;;;;29.70;26.30;;;;;;;16.27;90.82;100318.92;105028;1273;99317;-84
2023/09/13 05:18:36;;;;;;;33.50;27.60;;;;;;;16.33;90.77;100321.58;105098;1268;99386;-83
2023/09/13 05:21:21;;;;;;;39.40;29.10;;;;;;;16.39;91.13;100325.14;105119;1273;99888;-84
2023/09/13 05:24:07;;;;;;;40.20;30.10;;;;;;;16.45;91.49;100323.84;105157;1270;104020;-83
2023/09/13 05:26:52;;;;;;;33.90;28.20;;;;;;;16.52;91.81;100327.45;105201;1270;100370;-83
2023/09/13 05:29:38;;;;;;;42.70;29.40;;;;;;;16.59;92.32;100325.40;105095;1270;99447;-83
2023/09/13 05:32:23;;;;;;;39.00;31.30;;;;;;;16.65;92.70;100322.77;105230;1270;99236;-82
2023/09/13 05:35:10;;;;;;;38.70;30.50;;;;;;;16.72;93.03;100324.18;104985;1269;99887;-83
2023/09/13 05:37:56;;;;;;;38.90;30.10;;;;;;;16.78;93.46;100319.56;105046;1270;103643;-84
2023/09/13 05:40:41;;;;;;;42.80;32.70;;;;;;;16.84;93.70;100318.20;105097;1273;99335;-83
2023/09/13 05:43:28;;;;;;;36.00;31.10;;;;;;;16.90;93.82;100316.51;105303;1270;99383;-84
2023/09/13 05:46:16;;;;;;;35.50;30.80;;;;;;;16.98;94.03;100310.34;105865;1269;99376;-83
2023/09/13 05:49:01;;;;;;;42.80;31.50;;;;;;;17.05;94.04;100310.96;105522;1267;99790;-84
2023/09/13 05:51:47;;;;;;;36.90;31.70;;;;;;;17.13;94.37;100309.02;105020;1273;104466;-83
2023/09/13 05:54:32;;;;;;;40.00;32.10;;;;;;;17.21;94.48;100310.30;105187;1273;99358;-83
2023/09/13 05:57:18;;;;;;;43.30;32.50;;;;;;;17.29;94.59;100311.77;104912;1269;99468;-84
2023/09/13 06:00:05;;;;;;;40.10;29.80;;;;;;;17.37;94.82;100308.48;104919;1269;99307;-82
2023/09/13 06:02:57;;;;;;;41.20;30.40;;;;;;;17.45;95.16;100305.90;105100;1273;99793;-84
2023/09/13 06:05:43;;;;;;;43.10;31.10;;;;;;;17.54;95.38;100309.58;105050;1270;102791;-84
2023/09/13 06:08:29;;;;;;;32.70;28.90;;;;;;;17.64;95.62;100314.77;105273;1269;99532;-81
2023/09/13 06:11:16;;;;;;;37.10;29.70;;;;;;;17.74;95.65;100316.48;105603;1270;99352;-87
2023/09/13 06:14:07;;;;;;;39.10;30.90;;;;;;;17.83;95.70;100316.80;105229;1270;99377;-87
2023/09/13 06:16:52;;;;;;;38.10;29.20;;;;;;;17.93;96.00;100314.70;105308;1269;99873;-87
2023/09/13 06:19:39;;;;;;;34.90;29.30;;;;;;;18.03;96.51;100319.35;105520;1273;102827;-88
2023/09/13 06:22:25;;;;;;;37.80;30.20;;;;;;;18.14;96.29;100323.03;105267;1273;100325;-86
2023/09/13 06:25:11;;;;;;;34.60;29.10;;;;;;;18.24;96.80;100323.38;105269;1267;99419;-87
2023/09/13 06:27:56;;;;;;;36.50;27.70;;;;;;;18.34;96.59;100324.86;105378;1276;99352;-87
2023/09/13 06:30:42;;;;;;;35.00;28.60;;;;;;;18.44;96.92;100326.52;105475;1270;99386;-88
2023/09/13 06:33:27;;;;;;;37.10;27.40;;;;;;;18.54;97.31;100320.96;105604;1269;103018;-86
2023/09/13 06:36:13;;;;;;;31.90;26.60;;;;;;;18.65;97.20;100320.29;105513;1270;100357;-90
2023/09/13 06:38:59;;;;;;;32.20;25.30;;;;;;;18.76;97.29;100319.39;105382;1269;99268;-80
2023/09/13 06:42:04;;;;;;;30.90;26.30;;;;;;;18.87;97.46;100321.46;106051;1273;99325;-93
2023/09/13 06:44:50;;;;;;;30.30;25.70;;;;;;;19.01;97.40;100321.83;105631;1267;98477;-87
2023/09/13 06:47:35;;;;;;;30.80;23.80;;;;;;;19.12;97.20;100323.04;105238;1273;102854;-85
2023/09/13 06:50:21;;;;;;;30.30;24.50;;;;;;;19.25;97.62;100320.20;105201;1270;99352;-87
2023/09/13 06:53:06;;;;;;;29.10;25.60;;;;;;;19.37;97.56;100320.65;105162;1273;99464;-86
2023/09/13 06:55:52;;;;;;;34.00;24.20;;;;;;;19.48;96.48;100322.88;105167;1275;99299;-86
2023/09/13 06:58:39;;;;;;;26.00;22.80;;;;;;;19.59;96.06;100324.71;105419;1269;99866;-87
2023/09/13 07:01:25;;;;;;;27.90;22.90;;;;;;;19.69;95.20;100327.66;105491;1270;104082;-86
2023/09/13 07:04:11;;;;;;;29.60;22.60;;;;;;;19.79;94.83;100329.96;105373;1270;99486;-85
2023/09/13 07:06:57;;;;;;;29.00;22.70;;;;;;;19.91;95.25;100327.66;105289;1270;100126;-87
2023/09/13 07:09:45;;;;;;;28.70;21.80;;;;;;;20.03;94.78;100329.38;105406;1274;99469;-87
2023/09/13 07:12:30;;;;;;;29.90;23.00;;;;;;;20.14;94.86;100325.80;105284;1270;99769;-87
2023/09/13 07:15:17;;;;;;;31.30;23.40;;;;;;;20.27;94.89;100324.16;105257;1270;102858;-86
2023/09/13 07:18:03;;;;;;;26.60;23.70;;;;;;;20.41;95.35;100325.40;105393;1273;100791;-86
2023/09/13 07:20:49;;;;;;;29.70;23.60;;;;;;;20.54;94.50;100326.50;105599;1269;99268;-86
2023/09/13 07:23:35;;;;;;;29.30;22.20;;;;;;;20.66;94.50;100326.05;105119;1269;100120;-88
2023/09/13 07:26:21;;;;;;;27.40;23.50;;;;;;;20.77;94.01;100324.52;105436;1267;99777;-89
2023/09/13 07:29:07;;;;;;;23.80;20.20;;;;;;;20.89;93.24;100324.89;105390;1270;102860;-87
2023/09/13 07:31:52;;;;;;;32.90;21.40;;;;;;;21.00;92.94;100331.69;105530;1269;100531;-89
2023/09/13 07:34:38;;;;;;;23.30;20.40;;;;;;;21.10;92.57;100336.25;105444;1273;99566;-88
2023/09/13 07:37:27;;;;;;;31.30;21.90;;;;;;;21.21;92.56;100336.21;105113;1276;99144;-88
2023/09/13 07:40:18;;;;;;;24.50;20.70;;;;;;;21.32;92.39;100336.02;105358;1269;99260;-88
2023/09/13 07:43:08;;;;;;;26.20;20.30;;;;;;;21.44;92.11;100335.42;105315;1273;103532;-87
2023/09/13 07:45:53;;;;;;;25.60;20.90;;;;;;;21.55;92.20;100337.23;105231;1273;100904;-88
2023/09/13 07:48:39;;;;;;;26.70;20.50;;;;;;;21.67;92.10;100339.42;105324;1273;99387;-86
2023/09/13 07:51:25;;;;;;;25.60;19.20;;;;;;;21.76;91.16;100340.82;105376;1269;99389;-86
2023/09/13 07:54:11;;;;;;;25.20;19.10;;;;;;;21.86;90.45;100341.98;105525;1270;99403;-88
2023/09/13 07:56:57;;;;;;;27.00;20.60;;;;;;;21.96;89.82;100345.35;105320;1273;104846;-87
2023/09/13 07:59:43;;;;;;;27.60;20.40;;;;;;;22.06;90.18;100340.48;105388;1270;99897;-88
2023/09/13 08:02:29;;;;;;;23.40;19.50;;;;;;;22.17;89.98;100341.55;105535;1270;99307;-88
2023/09/13 08:05:16;;;;;;;29.80;20.10;;;;;;;22.30;89.62;100342.79;105455;1270;99444;-87
2023/09/13 08:08:03;;;;;;;23.80;19.10;;;;;;;22.42;89.32;100340.34;105444;1269;99784;-87
2023/09/13 08:10:52;;;;;;;25.90;19.40;;;;;;;22.53;89.39;100341.94;105416;1270;103548;-87
2023/09/13 08:13:38;;;;;;;26.70;17.80;;;;;;;22.63;88.98;100340.08;105329;1273;99323;-86
2023/09/13 08:16:24;;;;;;;26.60;18.50;;;;;;;22.74;88.20;100343.04;105512;1273;99973;-87
2023/09/13 08:19:10;;;;;;;22.00;17.00;;;;;;;22.84;87.00;100344.35;105203;1276;99453;-87
2023/09/13 08:21:56;;;;;;;25.00;18.00;;;;;;;22.94;86.92;100340.46;105309;1270;99288;-87
2023/09/13 08:24:43;;;;;;;24.30;17.50;;;;;;;23.06;86.28;100335.92;105325;1270;104258;-86
2023/09/13 08:27:29;;;;;;;22.90;17.00;;;;;;;23.18;85.92;100337.98;105522;1270;99311;-87
2023/09/13 08:30:14;;;;;;;22.00;17.00;;;;;;;23.29;86.08;100336.71;105304;1276;99456;-89
2023/09/13 08:33:00;;;;;;;23.30;17.20;;;;;;;23.41;86.38;100332.06;105295;1270;99358;-87
2023/09/13 08:35:47;;;;;;;21.40;17.60;;;;;;;23.53;85.81;100327.16;105359;1272;99988;-87
2023/09/13 08:38:33;;;;;;;22.20;17.10;;;;;;;23.62;84.78;100322.92;105282;1270;103806;-86
2023/09/13 08:41:19;;;;;;;23.20;17.40;;;;;;;23.70;84.07;100324.37;105324;1269;100725;-88
2023/09/13 08:44:06;;;;;;;20.60;15.40;;;;;;;23.79;83.72;100328.83;105067;1277;99367;-86
2023/09/13 08:47:01;;;;;;;24.70;17.20;;;;;;;23.88;82.90;100332.61;105336;1270;99346;-86
2023/09/13 08:49:49;;;;;;;23.10;16.20;;;;;;;23.97;82.08;100332.84;105309;1269;99364;-87
2023/09/13 08:52:39;;;;;;;20.20;15.90;;;;;;;24.07;81.77;100335.88;105116;1276;104109;-85
2023/09/13 08:55:26;;;;;;;19.10;15.70;;;;;;;24.16;81.21;100331.73;105141;1271;100753;-87
2023/09/13 08:58:11;;;;;;;19.20;15.30;;;;;;;24.25;81.29;100334.91;105171;1274;99450;-85
2023/09/13 09:01:02;;;;;;;19.40;15.90;;;;;;;24.34;80.86;100336.12;105717;1269;99719;-80
2023/09/13 09:03:50;;;;;;;18.70;15.20;;;;;;;24.44;80.39;100333.20;105892;1269;99343;-89
2023/09/13 09:06:36;;;;;;;25.10;15.50;;;;;;;24.53;79.91;100328.86;105394;1267;105015;-89
2023/09/13 09:09:28;;;;;;;19.30;15.70;;;;;;;24.62;79.24;100327.27;105770;1270;99278;-89
2023/09/13 09:12:17;;;;;;;16.40;14.10;;;;;;;24.72;78.97;100320.52;105719;1269;99425;-87
2023/09/13 09:15:05;;;;;;;20.80;14.60;;;;;;;24.80;77.76;100318.16;105853;1273;97657;-88
2023/09/13 09:17:54;;;;;;;20.90;14.90;;;;;;;24.88;76.89;100315.84;105855;1272;99326;-89
2023/09/13 09:20:41;;;;;;;19.70;14.70;;;;;;;24.98;76.45;100311.71;105618;1270;103667;-88
2023/09/13 09:23:29;;;;;;;22.10;14.70;;;;;;;25.08;76.44;100306.29;105441;1273;99884;-87
2023/09/13 09:26:14;;;;;;;16.00;13.80;;;;;;;25.18;75.71;100304.77;105283;1270;99380;-84
2023/09/13 09:29:11;;;;;;;21.90;14.70;;;;;;;25.25;74.82;100299.64;105800;1273;99721;-89
2023/09/13 09:31:59;;;;;;;17.90;14.90;;;;;;;25.35;74.85;100296.08;105498;1273;99137;-88
2023/09/13 09:34:45;;;;;;;16.20;14.10;;;;;;;25.44;74.19;100293.86;105631;1271;102825;-87
2023/09/13 09:37:33;;;;;;;21.80;16.60;;;;;;;25.53;73.76;100293.66;105482;1270;100391;-87
2023/09/13 09:40:22;;;;;;;18.80;14.20;;;;;;;25.61;72.99;100292.52;105444;1270;99482;-85
2023/09/13 09:43:08;;;;;;;19.80;13.90;;;;;;;25.68;72.10;100294.83;105451;1273;97291;-86
2023/09/13 09:45:54;;;;;;;19.30;13.30;;;;;;;25.76;71.79;100294.14;105439;1270;99329;-86
2023/09/13 09:48:41;;;;;;;17.30;14.50;;;;;;;25.82;72.17;100292.06;105308;1270;104132;-86
2023/09/13 09:51:29;;;;;;;19.40;14.90;;;;;;;25.90;71.78;100293.23;105071;1271;99364;-87
2023/09/13 09:54:15;;;;;;;16.60;13.70;;;;;;;25.97;70.97;100291.77;105082;1273;99349;-86
2023/09/13 09:57:01;;;;;;;20.80;13.80;;;;;;;26.05;70.26;100280.73;105201;1270;99280;-86
2023/09/13 09:59:47;;;;;;;20.00;14.10;;;;;;;26.13;69.79;100278.89;105230;1270;99335;-86
2023/09/13 10:02:33;;;;;;;17.90;13.70;;;;;;;26.21;69.02;100276.91;104999;1273;106009;-86
2023/09/13 10:05:20;;;;;;;17.40;14.30;;;;;;;26.33;68.37;100270.67;105228;1270;99450;-86
2023/09/13 10:08:07;;;;;;;18.80;13.30;;;;;;;26.42;67.83;100268.17;105280;1270;99915;-85
2023/09/13 10:10:56;;;;;;;18.70;11.60;;;;;;;26.50;66.65;100268.38;104932;1276;99386;-86
2023/09/13 10:13:45;;;;;;;20.40;12.00;;;;;;;26.57;66.08;100268.25;105310;1273;99764;-86
2023/09/13 10:16:32;;;;;;;15.10;12.30;;;;;;;26.65;64.82;100267.24;105175;1273;104318;-86
2023/09/13 10:19:19;;;;;;;13.90;12.30;;;;;;;26.72;64.37;100262.13;105162;1270;100630;-86
2023/09/13 10:22:04;;;;;;;15.00;11.40;;;;;;;26.79;63.91;100259.18;105152;1275;99624;-86
2023/09/13 10:24:57;;;;;;;15.10;11.80;;;;;;;26.87;63.02;100261.73;105169;1268;99393;-86
2023/09/13 10:27:54;;;;;;;14.80;11.40;;;;;;;26.96;62.10;100262.50;105200;1273;99915;-87
2023/09/13 10:30:45;;;;;;;18.80;11.20;;;;;;;27.05;61.29;100256.50;105034;1271;103294;-86
2023/09/13 10:33:33;;;;;;;17.50;11.30;;;;;;;27.12;61.30;100254.77;105106;1271;108599;-86
2023/09/13 10:36:26;;;;;;;14.50;11.40;;;;;;;27.17;61.03;100253.40;105093;1267;100616;-86
2023/09/13 10:39:18;;;;;;;15.50;10.90;;;;;;;27.23;60.94;100252.42;105299;1268;99322;-86
2023/09/13 10:42:07;;;;;;;13.40;11.80;;;;;;;27.30;59.85;100250.07;105350;1268;100938;-86
2023/09/13 10:44:54;;;;;;;16.00;10.60;;;;;;;27.38;59.15;100244.93;105283;1270;112710;-86
2023/09/13 10:47:39;;;;;;;12.00;10.80;;;;;;;27.43;59.04;100244.16;105084;1271;100689;-85
2023/09/13 10:50:26;;;;;;;12.40;11.20;;;;;;;27.47;59.03;100243.70;105270;1270;99732;-86
2023/09/13 10:53:14;;;;;;;14.70;11.60;;;;;;;27.52;58.90;100242.94;105141;1276;99330;-87
2023/09/13 10:56:00;;;;;;;12.50;10.80;;;;;;;27.59;58.43;100242.23;105130;1273;100014;-86
2023/09/13 10:58:50;;;;;;;13.60;11.70;;;;;;;27.66;59.01;100241.23;105129;1270;103638;-85
2023/09/13 11:01:41;;;;;;;13.80;10.70;;;;;;;27.72;58.96;100242.77;105119;1271;99402;-85
2023/09/13 11:04:30;;;;;;;14.70;10.80;;;;;;;27.81;58.28;100241.15;105058;1270;99693;-85
2023/09/13 11:07:17;;;;;;;11.40;10.10;;;;;;;27.87;57.45;100242.98;104817;1279;99383;-86
2023/09/13 11:10:07;;;;;;;15.40;11.20;;;;;;;27.92;56.97;100242.33;104927;1273;99393;-86
2023/09/13 11:12:53;;;;;;;13.50;10.50;;;;;;;27.98;56.82;100242.92;104901;1271;102945;-86
2023/09/13 11:15:53;;;;;;;15.50;10.80;;;;;;;28.05;56.31;100243.73;105117;1270;99474;-86
2023/09/13 11:18:52;;;;;;;12.30;9.60;;;;;;;28.10;56.01;100241.55;105089;1270;99376;-87
2023/09/13 11:21:57;;;;;;;11.80;10.60;;;;;;;28.15;56.09;100240.71;105025;1273;99300;-86
2023/09/13 11:24:50;;;;;;;13.50;10.90;;;;;;;28.21;55.43;100241.14;104899;1270;99166;-87
2023/09/13 11:27:36;;;;;;;11.60;10.50;;;;;;;28.27;54.80;100240.88;105197;1270;104352;-86
2023/09/13 11:30:45;;;;;;;12.70;10.50;;;;;;;28.32;55.26;100237.17;105077;1270;100598;-88
2023/09/13 11:34:00;;;;;;;14.30;9.40;;;;;;;28.37;55.12;100231.05;105019;1269;99349;-86
2023/09/13 11:36:54;;;;;;;13.20;10.00;;;;;;;28.43;55.00;100227.77;105237;1269;99310;-88
2023/09/13 11:39:41;;;;;;;10.80;9.40;;;;;;;28.50;53.94;100233.64;105005;1277;99778;-86
2023/09/13 11:42:28;;;;;;;13.00;9.60;;;;;;;28.54;53.96;100232.86;105130;1270;102813;-87
2023/09/13 11:45:16;;;;;;;12.60;9.80;;;;;;;28.58;53.92;100232.29;105032;1274;99345;-87
2023/09/13 11:48:04;;;;;;;11.20;10.10;;;;;;;28.64;53.82;100231.50;105048;1273;100594;-87
2023/09/13 11:50:51;;;;;;;13.20;9.90;;;;;;;28.72;53.69;100229.08;104867;1276;99371;-87
2023/09/13 11:53:40;;;;;;;11.10;10.00;;;;;;;28.77;53.51;100229.61;104967;1271;97804;-86
2023/09/13 11:56:33;;;;;;;13.60;9.80;;;;;;;28.80;53.59;100235.10;105111;1270;103517;-86
2023/09/13 11:59:24;;;;;;;11.90;9.70;;;;;;;28.82;53.92;100234.89;105093;1270;100492;-87
2023/09/13 12:02:13;;;;;;;14.60;10.30;;;;;;;28.85;53.69;100238.60;104974;1276;99687;-86
2023/09/13 12:05:00;;;;;;;10.70;9.70;;;;;;;28.87;53.63;100234.85;105092;1270;99413;-89
2023/09/13 12:07:45;;;;;;;11.70;9.30;;;;;;;28.90;53.78;100234.84;105772;1270;99781;-81
2023/09/13 12:10:38;;;;;;;10.60;9.60;;;;;;;28.91;53.68;100233.61;105946;1269;102923;-89
2023/09/13 12:13:54;;;;;;;11.90;9.90;;;;;;;28.91;53.76;100234.13;105574;1273;101679;-87
2023/09/13 12:16:40;;;;;;;13.00;9.90;;;;;;;28.93;53.59;100232.64;105718;1270;99760;-88
2023/09/13 12:19:26;;;;;;;12.40;9.50;;;;;;;28.94;53.10;100239.53;105340;1270;99362;-88
2023/09/13 12:22:22;;;;;;;15.10;10.60;;;;;;;28.94;53.12;100240.46;105332;1275;99432;-88
2023/09/13 12:25:12;;;;;;;15.00;10.30;;;;;;;28.95;53.08;100241.42;105472;1273;102826;-85
2023/09/13 12:27:58;;;;;;;13.40;9.80;;;;;;;28.99;53.17;100237.19;105876;1268;99902;-88
2023/09/13 12:30:44;;;;;;;11.70;10.00;;;;;;;29.04;52.91;100232.70;105888;1269;99391;-88